createdAt,value
2018-05-15T00:00:00.823Z,34.38
2018-05-15T00:01:01.932Z,32.83
2018-05-15T00:02:03.746Z,32.78
2018-05-15T00:03:04.827Z,32.35
2018-05-15T00:04:05.902Z,31.12
2018-05-15T00:05:06.978Z,30.70
2018-05-15T00:06:08.786Z,33.25
2018-05-15T00:07:09.861Z,28.73
2018-05-15T00:08:11.676Z,29.15
2018-05-15T00:09:12.751Z,30.85
2018-05-15T00:10:13.863Z,28.70
2018-05-15T00:11:15.675Z,27.20
2018-05-15T00:12:16.758Z,34.50
2018-05-15T00:13:17.836Z,30.40
2018-05-15T00:14:18.895Z,29.87
2018-05-15T00:15:19.988Z,27.08
2018-05-15T00:16:21.041Z,33.60
2018-05-15T00:17:22.108Z,31.37
2018-05-15T00:18:23.899Z,30.40
2018-05-15T00:19:25.039Z,30.35
2018-05-15T00:20:26.072Z,32.15
2018-05-15T00:21:27.874Z,35.72
2018-05-15T00:22:29.703Z,27.40
2018-05-15T00:23:30.774Z,35.47
2018-05-15T00:24:32.579Z,27.40
2018-05-15T00:25:33.647Z,28.98
2018-05-15T00:26:34.712Z,35.53
2018-05-15T00:27:35.772Z,30.25
2018-05-15T00:28:36.831Z,30.75
2018-05-15T00:29:37.899Z,31.67
2018-05-15T00:30:38.978Z,30.48
2018-05-15T00:31:40.057Z,35.33
2018-05-15T00:32:41.136Z,36.75
2018-05-15T00:33:42.228Z,35.20
2018-05-15T00:34:43.291Z,37.85
2018-05-15T00:35:44.387Z,34.55
2018-05-15T00:36:45.446Z,35.75
2018-05-15T00:37:47.251Z,33.90
2018-05-15T00:38:48.325Z,34.33
2018-05-15T00:39:49.421Z,32.30
2018-05-15T00:40:50.529Z,32.60
2018-05-15T00:41:51.595Z,28.87
2018-05-15T00:42:52.667Z,40.63
2018-05-15T00:43:53.742Z,33.00
2018-05-15T00:44:55.547Z,38.83
2018-05-15T00:45:56.626Z,38.65
2018-05-15T00:46:58.439Z,37.38
2018-05-15T00:47:59.498Z,34.70
2018-05-15T00:49:01.302Z,39.53
2018-05-15T00:50:02.488Z,32.03
2018-05-15T00:51:03.486Z,34.25
2018-05-15T00:52:04.599Z,37.17
2018-05-15T00:53:05.670Z,46.50
2018-05-15T00:54:07.485Z,50.65
2018-05-15T00:55:20.887Z,34.30
2018-05-15T00:56:22.675Z,32.63
2018-05-15T00:57:23.746Z,41.75
2018-05-15T00:58:24.834Z,38.10
2018-05-15T00:59:25.901Z,34.65
2018-05-15T01:00:26.978Z,35.78
2018-05-15T01:01:28.051Z,33.88
2018-05-15T01:02:29.863Z,32.55
2018-05-15T01:03:30.919Z,42.45
2018-05-15T01:04:31.978Z,47.50
2018-05-15T01:05:33.040Z,38.33
2018-05-15T01:06:34.127Z,37.80
2018-05-15T01:07:35.951Z,38.75
2018-05-15T01:08:37.023Z,34.78
2018-05-15T01:09:38.092Z,32.28
2018-05-15T01:10:39.160Z,33.10
2018-05-15T01:11:41.025Z,35.58
2018-05-15T01:12:42.108Z,34.17
2018-05-15T01:13:43.193Z,42.67
2018-05-15T01:14:44.992Z,28.58
2018-05-15T01:15:46.059Z,37.92
2018-05-15T01:16:47.135Z,36.95
2018-05-15T01:17:48.193Z,32.38
2018-05-15T01:18:49.271Z,41.13
2018-05-15T01:19:50.347Z,31.65
2018-05-15T01:20:51.416Z,31.27
2018-05-15T01:21:53.232Z,44.60
2018-05-15T01:22:54.316Z,34.30
2018-05-15T01:23:56.120Z,38.53
2018-05-15T01:24:57.193Z,38.42
2018-05-15T01:25:58.980Z,46.50
2018-05-15T01:27:00.047Z,41.33
2018-05-15T01:28:01.111Z,30.60
2018-05-15T01:29:02.926Z,33.50
2018-05-15T01:30:04.011Z,36.33
2018-05-15T01:31:05.077Z,39.03
2018-05-15T01:32:06.165Z,41.90
2018-05-15T01:33:07.970Z,52.55
2018-05-15T01:34:09.042Z,39.47
2018-05-15T01:35:10.125Z,43.20
2018-05-15T01:36:11.211Z,48.25
2018-05-15T01:37:13.087Z,48.25
2018-05-15T01:38:14.166Z,36.60
2018-05-15T01:39:15.262Z,40.53
2018-05-15T01:40:16.332Z,45.38
2018-05-15T01:41:17.397Z,43.95
2018-05-15T01:42:18.504Z,39.13
2018-05-15T01:43:19.551Z,30.25
2018-05-15T01:44:20.627Z,47.55
2018-05-15T01:45:21.703Z,36.80
2018-05-15T01:46:23.519Z,36.58
2018-05-15T01:47:24.591Z,32.35
2018-05-15T01:48:25.670Z,40.40
2018-05-15T01:49:26.750Z,48.75
2018-05-15T01:50:27.811Z,47.05
2018-05-15T01:51:28.867Z,36.97
2018-05-15T01:52:29.999Z,38.42
2018-05-15T01:53:31.067Z,34.03
2018-05-15T01:54:32.142Z,39.00
2018-05-15T01:55:33.196Z,42.35
2018-05-15T01:56:34.264Z,33.42
2018-05-15T01:57:35.361Z,41.60
2018-05-15T01:58:36.424Z,35.42
2018-05-15T01:59:37.508Z,37.38
2018-05-15T02:00:38.571Z,34.53
2018-05-15T02:01:39.634Z,48.15
2018-05-15T02:02:40.731Z,36.78
2018-05-15T02:03:41.793Z,41.10
2018-05-15T02:04:43.604Z,36.30
2018-05-15T02:05:44.673Z,32.88
2018-05-15T02:06:46.490Z,35.20
2018-05-15T02:07:47.552Z,35.83
2018-05-15T02:08:49.367Z,39.25
2018-05-15T02:09:50.427Z,34.70
2018-05-15T02:10:51.527Z,32.92
2018-05-15T02:11:52.600Z,39.97
2018-05-15T02:12:53.663Z,45.30
2018-05-15T02:13:54.723Z,37.97
2018-05-15T02:14:55.775Z,39.15
2018-05-15T02:15:56.874Z,46.33
2018-05-15T02:16:57.963Z,37.85
2018-05-15T02:17:59.039Z,34.97
2018-05-15T02:19:00.120Z,41.00
2018-05-15T02:20:01.180Z,42.13
2018-05-15T02:21:02.279Z,40.17
2018-05-15T02:22:03.359Z,28.38
2018-05-15T02:23:04.423Z,43.90
2018-05-15T02:24:05.504Z,30.23
2018-05-15T02:25:06.588Z,32.75
2018-05-15T02:26:07.642Z,32.58
2018-05-15T02:27:08.719Z,35.58
2018-05-15T02:28:09.790Z,32.85
2018-05-15T02:29:10.867Z,39.25
2018-05-15T02:30:11.947Z,40.55
2018-05-15T02:31:12.999Z,34.28
2018-05-15T02:32:14.093Z,37.15
2018-05-15T02:33:15.160Z,34.28
2018-05-15T02:34:16.235Z,33.45
2018-05-15T02:35:17.298Z,40.38
2018-05-15T02:36:18.363Z,27.33
2018-05-15T02:37:20.198Z,29.98
2018-05-15T02:38:21.245Z,31.45
2018-05-15T02:39:22.323Z,39.25
2018-05-15T02:40:23.372Z,36.33
2018-05-15T02:41:24.439Z,28.12
2018-05-15T02:42:25.536Z,40.75
2018-05-15T02:43:26.588Z,34.30
2018-05-15T02:44:27.666Z,30.25
2018-05-15T02:45:28.732Z,38.42
2018-05-15T02:46:29.784Z,29.63
2018-05-15T02:47:30.847Z,32.13
2018-05-15T02:48:32.644Z,34.38
2018-05-15T02:49:33.707Z,34.55
2018-05-15T02:50:34.791Z,35.30
2018-05-15T02:51:35.908Z,31.40
2018-05-15T02:52:36.991Z,40.72
2018-05-15T02:53:38.073Z,35.00
2018-05-15T02:54:39.143Z,26.37
2018-05-15T02:55:40.229Z,36.53
2018-05-15T02:56:41.306Z,28.52
2018-05-15T02:57:42.403Z,26.55
2018-05-15T02:58:43.470Z,33.28
2018-05-15T02:59:44.541Z,38.35
2018-05-15T03:00:45.590Z,32.72
2018-05-15T03:01:47.380Z,37.13
2018-05-15T03:02:48.445Z,36.47
2018-05-15T03:03:49.511Z,30.60
2018-05-15T03:04:50.581Z,40.47
2018-05-15T03:05:51.640Z,31.90
2018-05-15T03:06:52.690Z,32.65
2018-05-15T03:07:54.507Z,42.90
2018-05-15T03:08:55.579Z,34.53
2018-05-15T03:09:56.651Z,30.60
2018-05-15T03:10:57.732Z,45.08
2018-05-15T03:11:58.816Z,36.47
2018-05-15T03:12:59.893Z,35.17
2018-05-15T03:14:01.718Z,41.03
2018-05-15T03:15:02.810Z,29.42
2018-05-15T03:16:03.875Z,30.67
2018-05-15T03:17:04.964Z,27.15
2018-05-15T03:18:06.020Z,34.08
2018-05-15T03:19:07.100Z,36.85
2018-05-15T03:20:08.191Z,41.85
2018-05-15T03:21:09.251Z,32.60
2018-05-15T03:22:10.331Z,32.28
2018-05-15T03:23:11.405Z,33.08
2018-05-15T03:24:12.476Z,30.35
2018-05-15T03:25:14.285Z,39.58
2018-05-15T03:26:15.347Z,35.65
2018-05-15T03:27:16.434Z,37.78
2018-05-15T03:28:17.522Z,33.75
2018-05-15T03:29:18.627Z,36.28
2018-05-15T03:30:19.691Z,35.08
2018-05-15T03:31:20.805Z,30.65
2018-05-15T03:32:22.612Z,34.85
2018-05-15T03:33:23.705Z,39.38
2018-05-15T03:34:25.498Z,45.97
2018-05-15T03:35:26.562Z,40.10
2018-05-15T03:36:28.376Z,33.08
2018-05-15T03:37:29.437Z,29.73
2018-05-15T03:38:30.494Z,43.20
2018-05-15T03:39:31.591Z,32.28
2018-05-15T03:40:32.675Z,37.70
2018-05-15T03:41:33.735Z,35.33
2018-05-15T03:42:34.838Z,40.58
2018-05-15T03:43:35.901Z,35.03
2018-05-15T03:44:36.965Z,35.33
2018-05-15T03:45:38.027Z,36.15
2018-05-15T03:46:39.826Z,34.85
2018-05-15T03:47:40.891Z,33.42
2018-05-15T03:48:41.953Z,31.70
2018-05-15T03:49:43.006Z,36.85
2018-05-15T03:50:44.069Z,33.75
2018-05-15T03:51:45.139Z,37.35
2018-05-15T03:52:46.219Z,42.80
2018-05-15T03:53:47.303Z,52.30
2018-05-15T03:54:48.387Z,38.20
2018-05-15T03:55:49.479Z,34.75
2018-05-15T03:56:50.562Z,35.33
2018-05-15T03:57:51.627Z,29.67
2018-05-15T03:58:52.712Z,39.58
2018-05-15T03:59:54.583Z,35.53
2018-05-15T04:01:08.035Z,38.22
2018-05-15T04:02:21.503Z,39.47
2018-05-15T04:03:34.775Z,34.17
2018-05-15T04:04:48.127Z,31.85
2018-05-15T04:06:01.511Z,26.30
2018-05-15T04:07:14.843Z,34.05
2018-05-15T04:08:15.974Z,30.27
2018-05-15T04:09:17.061Z,39.03
2018-05-15T04:10:18.191Z,39.95
2018-05-15T04:11:19.355Z,41.90
2018-05-15T04:12:21.171Z,38.88
2018-05-15T04:13:22.238Z,32.05
2018-05-15T04:14:23.304Z,31.70
2018-05-15T04:15:24.367Z,64.53
2018-05-15T04:16:25.447Z,34.45
2018-05-15T04:17:26.530Z,33.92
2018-05-15T04:18:27.615Z,32.83
2018-05-15T04:19:28.659Z,34.70
2018-05-15T04:20:29.752Z,32.75
2018-05-15T04:21:30.815Z,32.38
2018-05-15T04:22:31.899Z,28.60
2018-05-15T04:23:32.975Z,31.20
2018-05-15T04:24:34.028Z,37.47
2018-05-15T04:25:35.119Z,39.03
2018-05-15T04:26:36.166Z,32.03
2018-05-15T04:27:37.239Z,35.30
2018-05-15T04:28:38.322Z,34.33
2018-05-15T04:29:40.128Z,32.78
2018-05-15T04:30:41.179Z,43.38
2018-05-15T04:31:42.271Z,34.78
2018-05-15T04:32:43.337Z,41.13
2018-05-15T04:33:44.399Z,38.92
2018-05-15T04:34:46.220Z,38.92
2018-05-15T04:35:47.291Z,35.90
2018-05-15T04:36:48.357Z,23.73
2018-05-15T04:37:49.466Z,36.15
2018-05-15T04:38:50.539Z,37.13
2018-05-15T04:39:51.591Z,36.63
2018-05-15T04:40:52.659Z,29.98
2018-05-15T04:41:53.729Z,32.25
2018-05-15T04:42:54.803Z,26.92
2018-05-15T04:43:55.944Z,43.55
2018-05-15T04:44:56.971Z,36.10
2018-05-15T04:45:58.045Z,30.67
2018-05-15T04:46:59.130Z,38.10
2018-05-15T04:48:00.935Z,39.20
2018-05-15T04:49:02.011Z,31.70
2018-05-15T04:50:03.820Z,31.73
2018-05-15T04:51:04.904Z,35.22
2018-05-15T04:52:05.960Z,29.98
2018-05-15T04:53:07.746Z,30.75
2018-05-15T04:54:08.815Z,35.63
2018-05-15T04:55:09.886Z,30.65
2018-05-15T04:56:10.961Z,44.67
2018-05-15T04:57:12.038Z,43.25
2018-05-15T04:58:13.147Z,38.65
2018-05-15T04:59:14.958Z,33.47
2018-05-15T05:00:15.996Z,33.47
2018-05-15T05:01:17.076Z,37.25
2018-05-15T05:02:18.174Z,29.12
2018-05-15T05:03:19.277Z,34.50
2018-05-15T05:04:20.378Z,33.70
2018-05-15T05:05:21.426Z,35.50
2018-05-15T05:06:22.483Z,41.80
2018-05-15T05:07:23.541Z,29.08
2018-05-15T05:08:24.619Z,35.83
2018-05-15T05:09:25.707Z,29.90
2018-05-15T05:10:26.802Z,30.55
2018-05-15T05:11:28.030Z,32.95
2018-05-15T05:12:29.110Z,33.95
2018-05-15T05:13:30.180Z,32.83
2018-05-15T05:14:31.251Z,27.62
2018-05-15T05:15:32.351Z,30.85
2018-05-15T05:16:33.444Z,29.95
2018-05-15T05:17:35.239Z,36.08
2018-05-15T05:18:36.303Z,32.72
2018-05-15T05:19:37.384Z,34.40
2018-05-15T05:20:38.450Z,31.95
2018-05-15T05:21:39.572Z,25.27
2018-05-15T05:22:41.452Z,33.50
2018-05-15T05:23:42.528Z,29.45
2018-05-15T05:24:43.594Z,46.03
2018-05-15T05:25:44.663Z,44.85
2018-05-15T05:26:46.523Z,34.17
2018-05-15T05:27:47.571Z,33.78
2018-05-15T05:28:48.744Z,36.70
2018-05-15T05:29:49.847Z,34.35
2018-05-15T05:30:50.914Z,25.95
2018-05-15T05:31:52.920Z,28.62
2018-05-15T05:32:54.003Z,28.92
2018-05-15T05:33:55.191Z,32.75
2018-05-15T05:34:56.991Z,42.20
2018-05-15T05:35:58.064Z,35.28
2018-05-15T05:36:59.131Z,34.25
2018-05-15T05:38:00.182Z,34.88
2018-05-15T05:39:01.251Z,43.25
2018-05-15T05:40:02.438Z,31.75
2018-05-15T05:41:03.412Z,32.55
2018-05-15T05:42:05.229Z,34.15
2018-05-15T05:43:06.295Z,27.42
2018-05-15T05:44:07.385Z,31.40
2018-05-15T05:45:08.458Z,29.27
2018-05-15T05:46:09.550Z,29.35
2018-05-15T05:47:10.615Z,27.33
2018-05-15T05:48:12.405Z,34.90
2018-05-15T05:49:13.495Z,28.75
2018-05-15T05:50:15.298Z,21.87
2018-05-15T05:51:16.354Z,25.02
2018-05-15T05:52:17.405Z,26.98
2018-05-15T05:53:19.206Z,27.70
2018-05-15T05:54:20.263Z,34.55
2018-05-15T05:55:21.365Z,30.48
2018-05-15T05:56:22.498Z,26.08
2018-05-15T05:57:23.614Z,29.80
2018-05-15T05:58:24.725Z,27.23
2018-05-15T05:59:25.847Z,24.85
2018-05-15T06:00:26.968Z,25.27
2018-05-15T06:01:28.022Z,25.80
2018-05-15T06:02:29.825Z,24.83
2018-05-15T06:03:30.892Z,29.20
2018-05-15T06:04:32.711Z,27.48
2018-05-15T06:05:33.779Z,30.12
2018-05-15T06:06:35.628Z,30.58
2018-05-15T06:07:37.459Z,29.48
2018-05-15T06:08:38.540Z,29.63
2018-05-15T06:09:39.599Z,24.98
2018-05-15T06:10:40.731Z,26.20
2018-05-15T06:11:41.826Z,28.30
2018-05-15T06:12:42.903Z,27.75
2018-05-15T06:13:44.758Z,30.40
2018-05-15T06:14:45.847Z,25.42
2018-05-15T06:15:46.939Z,28.77
2018-05-15T06:16:47.993Z,31.02
2018-05-15T06:17:49.075Z,32.05
2018-05-15T06:18:50.147Z,26.55
2018-05-15T06:19:51.987Z,33.10
2018-05-15T06:20:53.121Z,35.58
2018-05-15T06:21:54.180Z,37.30
2018-05-15T06:22:55.260Z,34.13
2018-05-15T06:23:56.335Z,25.88
2018-05-15T06:24:57.443Z,28.17
2018-05-15T06:25:59.282Z,35.28
2018-05-15T06:27:00.350Z,38.25
2018-05-15T06:28:01.407Z,38.92
2018-05-15T06:29:02.459Z,22.92
2018-05-15T06:30:03.536Z,28.40
2018-05-15T06:31:05.335Z,27.27
2018-05-15T06:32:06.410Z,25.58
2018-05-15T06:33:07.463Z,26.05
2018-05-15T06:34:08.550Z,31.27
2018-05-15T06:35:09.633Z,31.98
2018-05-15T06:36:10.720Z,27.58
2018-05-15T06:37:11.779Z,26.45
2018-05-15T06:38:12.858Z,29.23
2018-05-15T06:39:13.924Z,31.65
2018-05-15T06:40:15.047Z,26.10
2018-05-15T06:41:16.122Z,31.00
2018-05-15T06:42:17.190Z,28.92
2018-05-15T06:43:18.271Z,28.42
2018-05-15T06:44:20.086Z,26.58
2018-05-15T06:45:21.196Z,34.70
2018-05-15T06:46:22.270Z,31.08
2018-05-15T06:47:24.086Z,30.65
2018-05-15T06:48:25.142Z,30.83
2018-05-15T06:49:26.260Z,28.77
2018-05-15T06:50:27.346Z,36.10
2018-05-15T06:51:29.183Z,33.13
2018-05-15T06:52:30.974Z,35.25
2018-05-15T06:53:32.043Z,34.63
2018-05-15T06:54:33.131Z,35.50
2018-05-15T06:55:34.186Z,29.90
2018-05-15T06:56:35.266Z,32.85
2018-05-15T06:57:36.342Z,30.60
2018-05-15T06:58:37.417Z,31.27
2018-05-15T06:59:38.498Z,37.33
2018-05-15T07:00:39.653Z,33.85
2018-05-15T07:01:40.731Z,28.80
2018-05-15T07:02:41.803Z,29.80
2018-05-15T07:03:42.881Z,28.65
2018-05-15T07:04:44.694Z,26.42
2018-05-15T07:05:45.779Z,27.55
2018-05-15T07:06:46.880Z,31.55
2018-05-15T07:07:47.958Z,26.87
2018-05-15T07:08:49.016Z,38.72
2018-05-15T07:09:50.087Z,32.47
2018-05-15T07:10:51.175Z,29.63
2018-05-15T07:11:52.257Z,30.30
2018-05-15T07:12:53.320Z,32.25
2018-05-15T07:13:54.428Z,25.12
2018-05-15T07:14:55.500Z,29.92
2018-05-15T07:15:56.566Z,28.48
2018-05-15T07:16:57.634Z,27.42
2018-05-15T07:17:59.455Z,24.45
2018-05-15T07:19:00.528Z,28.00
2018-05-15T07:20:01.595Z,31.73
2018-05-15T07:21:02.659Z,28.80
2018-05-15T07:22:04.458Z,35.13
2018-05-15T07:23:05.514Z,30.98
2018-05-15T07:24:06.596Z,28.17
2018-05-15T07:25:07.660Z,30.40
2018-05-15T07:26:08.742Z,30.50
2018-05-15T07:27:09.848Z,27.77
2018-05-15T07:28:10.910Z,35.70
2018-05-15T07:29:11.987Z,32.47
2018-05-15T07:30:13.051Z,34.88
2018-05-15T07:31:14.122Z,25.70
2018-05-15T07:32:15.174Z,29.30
2018-05-15T07:33:16.299Z,28.80
2018-05-15T07:34:17.353Z,30.35
2018-05-15T07:35:18.418Z,27.95
2018-05-15T07:36:19.479Z,27.52
2018-05-15T07:37:20.595Z,28.52
2018-05-15T07:38:21.642Z,24.60
2018-05-15T07:39:22.728Z,33.42
2018-05-15T07:40:23.783Z,25.25
2018-05-15T07:41:24.860Z,27.45
2018-05-15T07:42:26.685Z,22.87
2018-05-15T07:43:28.491Z,26.77
2018-05-15T07:44:29.558Z,29.02
2018-05-15T07:45:31.371Z,27.35
2018-05-15T07:46:32.460Z,27.60
2018-05-15T07:47:33.541Z,24.23
2018-05-15T07:48:34.598Z,27.30
2018-05-15T07:49:35.660Z,22.80
2018-05-15T07:50:36.727Z,28.35
2018-05-15T07:51:37.799Z,23.58
2018-05-15T07:52:39.627Z,31.20
2018-05-15T07:53:40.753Z,29.27
2018-05-15T07:54:41.758Z,25.12
2018-05-15T07:55:42.821Z,29.45
2018-05-15T07:56:43.906Z,29.70
2018-05-15T07:57:45.059Z,29.95
2018-05-15T07:58:46.125Z,29.92
2018-05-15T07:59:47.176Z,25.92
2018-05-15T08:00:48.974Z,25.77
2018-05-15T08:01:50.045Z,26.45
2018-05-15T08:02:51.851Z,21.67
2018-05-15T08:03:52.909Z,25.05
2018-05-15T08:04:53.990Z,26.15
2018-05-15T08:05:55.042Z,25.08
2018-05-15T08:06:56.106Z,25.62
2018-05-15T08:07:57.238Z,29.50
2018-05-15T08:08:58.292Z,25.25
2018-05-15T08:10:00.099Z,24.60
2018-05-15T08:11:01.152Z,25.45
2018-05-15T08:12:02.219Z,26.10
2018-05-15T08:13:04.039Z,27.17
2018-05-15T08:14:05.104Z,25.37
2018-05-15T08:15:06.925Z,25.12
2018-05-15T08:16:07.975Z,28.27
2018-05-15T08:17:09.795Z,30.33
2018-05-15T08:18:10.850Z,26.90
2018-05-15T08:19:12.646Z,23.45
2018-05-15T08:20:13.719Z,24.98
2018-05-15T08:21:14.796Z,30.33
2018-05-15T08:22:15.920Z,25.27
2018-05-15T08:23:16.979Z,25.40
2018-05-15T08:24:18.048Z,20.80
2018-05-15T08:25:19.203Z,28.42
2018-05-15T08:26:20.215Z,20.98
2018-05-15T08:27:21.331Z,20.55
2018-05-15T08:28:22.390Z,28.30
2018-05-15T08:29:24.268Z,18.52
2018-05-15T08:30:25.323Z,22.48
2018-05-15T08:31:26.404Z,27.52
2018-05-15T08:32:28.207Z,20.00
2018-05-15T08:33:29.280Z,22.90
2018-05-15T08:34:31.089Z,27.95
2018-05-15T08:35:32.158Z,25.83
2018-05-15T08:36:33.207Z,26.02
2018-05-15T08:37:35.212Z,21.55
2018-05-15T08:38:36.127Z,23.35
2018-05-15T08:39:37.186Z,23.10
2018-05-15T08:40:38.257Z,24.92
2018-05-15T08:41:39.316Z,24.80
2018-05-15T08:42:40.374Z,24.85
2018-05-15T08:43:41.437Z,23.85
2018-05-15T08:44:43.246Z,22.25
2018-05-15T08:45:44.307Z,25.30
2018-05-15T08:46:45.406Z,36.65
2018-05-15T08:47:46.465Z,19.20
2018-05-15T08:48:47.621Z,23.75
2018-05-15T08:49:48.715Z,21.37
2018-05-15T08:50:49.783Z,21.92
2018-05-15T08:51:51.598Z,25.45
2018-05-15T08:52:52.662Z,23.80
2018-05-15T08:53:53.736Z,23.80
2018-05-15T08:54:54.816Z,25.85
2018-05-15T08:55:56.636Z,20.45
2018-05-15T08:56:57.748Z,19.98
2018-05-15T08:57:58.801Z,20.92
2018-05-15T08:58:59.870Z,22.52
2018-05-15T09:00:00.928Z,22.17
2018-05-15T09:01:01.988Z,21.62
2018-05-15T09:02:03.067Z,23.10
2018-05-15T09:03:04.868Z,23.85
2018-05-15T09:04:05.966Z,20.37
2018-05-15T09:06:14.832Z,23.17
2018-05-15T09:07:15.885Z,23.52
2018-05-15T09:08:16.950Z,21.80
2018-05-15T09:09:18.019Z,21.37
2018-05-15T09:10:19.083Z,20.30
2018-05-15T09:11:20.124Z,22.70
2018-05-15T09:12:21.182Z,19.98
2018-05-15T09:13:22.247Z,25.45
2018-05-15T09:14:23.359Z,22.70
2018-05-15T09:15:24.419Z,24.02
2018-05-15T09:16:25.494Z,25.70
2018-05-15T09:17:26.562Z,22.48
2018-05-15T09:18:27.619Z,25.12
2018-05-15T09:19:28.711Z,19.40
2018-05-15T09:20:29.775Z,24.08
2018-05-15T09:21:30.850Z,22.58
2018-05-15T09:22:31.930Z,21.90
2018-05-15T09:23:32.996Z,19.23
2018-05-15T09:24:34.092Z,26.62
2018-05-15T09:25:35.147Z,18.55
2018-05-15T09:26:36.206Z,20.33
2018-05-15T09:27:37.266Z,18.25
2018-05-15T09:28:38.322Z,20.52
2018-05-15T09:29:40.123Z,16.30
2018-05-15T09:30:41.920Z,19.25
2018-05-15T09:31:43.015Z,17.73
2018-05-15T09:32:44.086Z,20.65
2018-05-15T09:33:45.168Z,20.25
2018-05-15T09:34:46.997Z,22.25
2018-05-15T09:35:48.825Z,22.42
2018-05-15T09:36:49.892Z,22.62
2018-05-15T09:37:50.961Z,24.02
2018-05-15T09:38:52.778Z,30.02
2018-05-15T09:39:54.612Z,19.58
2018-05-15T09:40:55.671Z,22.80
2018-05-15T09:41:57.484Z,22.67
2018-05-15T09:42:58.542Z,25.88
2018-05-15T09:43:59.647Z,21.95
2018-05-15T09:45:00.705Z,23.77
2018-05-15T09:46:01.791Z,24.10
2018-05-15T09:47:02.883Z,26.70
2018-05-15T09:48:03.947Z,21.40
2018-05-15T09:49:05.002Z,21.33
2018-05-15T09:50:06.089Z,20.58
2018-05-15T09:51:07.159Z,22.50
2018-05-15T09:52:08.238Z,23.17
2018-05-15T09:53:09.319Z,18.17
2018-05-15T09:54:10.395Z,21.80
2018-05-15T09:55:12.202Z,18.58
2018-05-15T09:56:13.280Z,24.73
2018-05-15T09:57:14.428Z,22.08
2018-05-15T09:58:15.508Z,20.58
2018-05-15T09:59:16.588Z,24.45
2018-05-15T10:00:23.787Z,20.75
2018-05-15T10:01:24.860Z,18.90
2018-05-15T10:02:25.912Z,22.02
2018-05-15T10:03:28.554Z,22.58
2018-05-15T10:04:29.871Z,21.70
2018-05-15T10:05:30.952Z,24.33
2018-05-15T10:06:32.748Z,25.10
2018-05-15T10:07:33.905Z,20.48
2018-05-15T10:08:34.910Z,21.17
2018-05-15T10:09:35.963Z,19.27
2018-05-15T10:10:37.039Z,20.50
2018-05-15T10:11:38.111Z,17.40
2018-05-15T10:12:39.179Z,19.52
2018-05-15T10:13:40.249Z,17.08
2018-05-15T10:14:41.791Z,14.80
2018-05-15T10:15:42.983Z,18.73
2018-05-15T10:16:44.039Z,17.98
2018-05-15T10:17:45.851Z,18.42
2018-05-15T10:18:46.895Z,22.62
2018-05-15T10:19:48.007Z,18.58
2018-05-15T10:20:49.071Z,23.90
2018-05-15T10:21:50.111Z,19.58
2018-05-15T10:22:51.184Z,21.98
2018-05-15T10:23:52.235Z,24.58
2018-05-15T10:24:53.321Z,21.27
2018-05-15T10:25:55.115Z,20.35
2018-05-15T10:26:56.163Z,20.65
2018-05-15T10:27:57.223Z,20.77
2018-05-15T10:28:59.010Z,18.30
2018-05-15T10:30:00.103Z,23.00
2018-05-15T10:31:01.183Z,16.15
2018-05-15T10:32:02.276Z,21.98
2018-05-15T10:33:04.087Z,20.10
2018-05-15T10:34:05.160Z,15.48
2018-05-15T10:35:06.232Z,19.90
2018-05-15T10:36:07.291Z,19.40
2018-05-15T10:37:08.371Z,21.30
2018-05-15T10:38:09.426Z,19.08
2018-05-15T10:39:10.580Z,22.42
2018-05-15T10:40:11.646Z,22.48
2018-05-15T10:41:13.459Z,19.62
2018-05-15T10:42:14.503Z,16.67
2018-05-15T10:43:15.583Z,22.10
2018-05-15T10:44:16.640Z,15.32
2018-05-15T10:45:17.707Z,19.80
2018-05-15T10:46:19.507Z,17.87
2018-05-15T10:47:20.548Z,17.45
2018-05-15T10:48:21.606Z,23.23
2018-05-15T10:49:22.715Z,14.93
2018-05-15T10:50:23.802Z,20.15
2018-05-15T10:51:25.602Z,19.10
2018-05-15T10:52:26.673Z,19.25
2018-05-15T10:53:27.751Z,18.98
2018-05-15T10:54:28.803Z,20.17
2018-05-15T10:55:29.870Z,19.67
2018-05-15T10:56:30.948Z,22.83
2018-05-15T10:57:32.016Z,25.00
2018-05-15T10:58:33.848Z,21.83
2018-05-15T10:59:34.913Z,23.58
2018-05-15T11:00:35.974Z,25.17
2018-05-15T11:01:37.051Z,21.55
2018-05-15T11:02:38.111Z,20.45
2018-05-15T11:03:39.178Z,21.92
2018-05-15T11:04:40.234Z,19.27
2018-05-15T11:05:41.315Z,20.60
2018-05-15T11:06:43.120Z,23.35
2018-05-15T11:07:44.191Z,21.87
2018-05-15T11:08:45.248Z,22.37
2018-05-15T11:09:46.311Z,19.05
2018-05-15T11:10:47.385Z,19.15
2018-05-15T11:11:49.194Z,19.35
2018-05-15T11:12:50.329Z,23.60
2018-05-15T11:13:52.090Z,17.08
2018-05-15T11:14:53.159Z,22.45
2018-05-15T11:15:54.459Z,19.35
2018-05-15T11:16:55.514Z,19.12
2018-05-15T11:17:56.615Z,20.60
2018-05-15T11:19:10.004Z,20.62
2018-05-15T11:20:23.951Z,21.17
2018-05-15T11:21:37.462Z,21.65
2018-05-15T11:22:51.682Z,22.08
2018-05-15T11:24:17.844Z,23.85
2018-05-15T11:25:18.947Z,24.58
2018-05-15T11:26:20.019Z,20.98
2018-05-15T11:27:21.110Z,24.05
2018-05-15T11:28:22.171Z,21.33
2018-05-15T11:29:23.251Z,19.08
2018-05-15T11:30:24.329Z,16.85
2018-05-15T11:31:25.407Z,20.60
2018-05-15T11:32:26.496Z,22.87
2018-05-15T11:33:27.560Z,17.58
2018-05-15T11:34:28.674Z,17.90
2018-05-15T11:35:29.740Z,18.20
2018-05-15T11:36:30.806Z,18.48
2018-05-15T11:37:31.901Z,15.10
2018-05-15T11:38:32.991Z,20.65
2018-05-15T11:39:34.072Z,14.43
2018-05-15T11:40:35.145Z,23.67
2018-05-15T11:41:36.250Z,15.05
2018-05-15T11:42:37.283Z,19.48
2018-05-15T11:43:39.096Z,18.42
2018-05-15T11:44:40.135Z,17.50
2018-05-15T11:45:41.455Z,19.70
2018-05-15T11:46:42.554Z,19.42
2018-05-15T11:47:43.762Z,18.40
2018-05-15T11:48:45.716Z,18.50
2018-05-15T11:49:47.429Z,19.85
2018-05-15T11:50:48.814Z,20.80
2018-05-15T11:51:49.893Z,20.00
2018-05-15T11:52:51.821Z,18.35
2018-05-15T11:53:52.126Z,21.50
2018-05-15T11:54:53.099Z,17.55
2018-05-15T11:55:54.231Z,20.30
2018-05-15T11:56:55.279Z,17.92
2018-05-15T11:57:57.082Z,20.33
2018-05-15T11:58:58.142Z,22.33
2018-05-15T11:59:59.308Z,22.02
2018-05-15T12:01:00.305Z,19.98
2018-05-15T12:02:01.367Z,20.60
2018-05-15T12:03:02.471Z,18.33
2018-05-15T12:04:03.558Z,21.15
2018-05-15T12:05:04.625Z,18.20
2018-05-15T12:06:05.706Z,17.77
2018-05-15T12:07:07.517Z,19.55
2018-05-15T12:08:08.649Z,18.05
2018-05-15T12:09:09.858Z,21.52
2018-05-15T12:10:10.859Z,21.08
2018-05-15T12:11:11.927Z,22.62
2018-05-15T12:12:12.987Z,17.48
2018-05-15T12:13:14.070Z,22.42
2018-05-15T12:14:15.172Z,19.75
2018-05-15T12:15:16.970Z,15.10
2018-05-15T12:16:18.030Z,14.07
2018-05-15T12:17:19.080Z,18.48
2018-05-15T12:18:20.133Z,15.85
2018-05-15T12:19:21.206Z,16.75
2018-05-15T12:20:22.274Z,15.25
2018-05-15T12:21:23.326Z,15.82
2018-05-15T12:22:24.371Z,12.05
2018-05-15T12:23:25.461Z,14.82
2018-05-15T12:24:26.542Z,15.95
2018-05-15T12:25:27.588Z,18.15
2018-05-15T12:26:28.665Z,14.40
2018-05-15T12:27:29.740Z,18.17
2018-05-15T12:28:30.811Z,16.87
2018-05-15T12:29:31.901Z,17.73
2018-05-15T12:30:32.988Z,17.20
2018-05-15T12:31:34.083Z,13.60
2018-05-15T12:32:35.153Z,15.25
2018-05-15T12:33:36.230Z,14.75
2018-05-15T12:34:37.307Z,16.73
2018-05-15T12:35:38.374Z,13.18
2018-05-15T12:36:39.474Z,18.58
2018-05-15T12:37:40.531Z,14.35
2018-05-15T12:38:42.345Z,17.48
2018-05-15T12:39:43.418Z,15.77
2018-05-15T12:40:45.231Z,17.20
2018-05-15T12:41:46.339Z,15.68
2018-05-15T12:42:47.359Z,16.98
2018-05-15T12:43:48.423Z,16.70
2018-05-15T12:44:49.499Z,15.48
2018-05-15T12:45:50.555Z,16.27
2018-05-15T12:46:51.768Z,17.27
2018-05-15T12:47:52.800Z,15.35
2018-05-15T12:48:53.866Z,18.70
2018-05-15T12:49:54.952Z,14.63
2018-05-15T12:50:56.136Z,19.17
2018-05-15T12:51:57.268Z,16.30
2018-05-15T12:52:58.333Z,19.10
2018-05-15T12:53:59.522Z,13.32
2018-05-15T12:55:00.518Z,17.67
2018-05-15T12:56:01.586Z,16.05
2018-05-15T12:57:02.651Z,19.37
2018-05-15T12:58:03.720Z,17.25
2018-05-15T12:59:04.797Z,16.67
2018-05-15T13:00:05.893Z,16.27
2018-05-15T13:01:06.962Z,15.57
2018-05-15T13:02:08.210Z,17.67
2018-05-15T13:03:10.108Z,17.27
2018-05-15T13:04:11.177Z,14.05
2018-05-15T13:05:12.310Z,15.10
2018-05-15T13:06:13.382Z,17.95
2018-05-15T13:07:15.199Z,20.02
2018-05-15T13:08:16.271Z,15.85
2018-05-15T13:09:18.066Z,13.77
2018-05-15T13:10:19.159Z,16.77
2018-05-15T13:11:20.243Z,16.02